sensor_id;sensor_type;location;lat;lon;timestamp;P1;durP1;ratioP1;P2;durP2;ratioP2
48795;SDS011;34607;48.520;-1.330;2023-10-19T06:14:07;7.93;;;1.38;;
48795;SDS011;34607;48.520;-1.330;2023-10-19T06:16:35;6.20;;;1.75;;
48795;SDS011;34607;48.520;-1.330;2023-10-19T06:19:03;12.88;;;1.60;;
48795;SDS011;34607;48.520;-1.330;2023-10-19T06:21:30;8.57;;;1.67;;
48795;SDS011;34607;48.520;-1.330;2023-10-19T06:23:58;10.52;;;1.75;;
48795;SDS011;34607;48.520;-1.330;2023-10-19T06:26:26;4.03;;;1.50;;
48795;SDS011;34607;48.520;-1.330;2023-10-19T06:28:53;10.38;;;2.65;;
48795;SDS011;34607;48.520;-1.330;2023-10-19T06:31:25;9.93;;;1.80;;
48795;SDS011;34607;48.520;-1.330;2023-10-19T06:33:53;5.65;;;1.58;;
48795;SDS011;34607;48.520;-1.330;2023-10-19T06:36:22;9.65;;;2.10;;
48795;SDS011;34607;48.520;-1.330;2023-10-19T06:38:49;7.90;;;1.85;;
48795;SDS011;34607;48.520;-1.330;2023-10-19T06:41:16;9.80;;;2.00;;
48795;SDS011;34607;48.520;-1.330;2023-10-19T06:43:44;11.15;;;2.08;;
48795;SDS011;34607;48.520;-1.330;2023-10-19T06:46:12;10.82;;;2.13;;
48795;SDS011;34607;48.520;-1.330;2023-10-19T06:48:41;9.90;;;2.45;;
48795;SDS011;34607;48.520;-1.330;2023-10-19T06:51:08;15.38;;;2.53;;
48795;SDS011;34607;48.520;-1.330;2023-10-19T06:53:37;12.65;;;2.17;;
48795;SDS011;34607;48.520;-1.330;2023-10-19T06:56:04;14.75;;;3.40;;
48795;SDS011;34607;48.520;-1.330;2023-10-19T06:58:32;7.07;;;3.03;;
48795;SDS011;34607;48.520;-1.330;2023-10-19T07:00:59;13.95;;;2.88;;
48795;SDS011;34607;48.520;-1.330;2023-10-19T07:03:30;17.13;;;3.70;;
48795;SDS011;34607;48.520;-1.330;2023-10-19T07:05:59;10.77;;;2.38;;
48795;SDS011;34607;48.520;-1.330;2023-10-19T07:08:28;16.70;;;3.40;;
48795;SDS011;34607;48.520;-1.330;2023-10-19T07:10:55;16.73;;;2.92;;
48795;SDS011;34607;48.520;-1.330;2023-10-19T07:13:22;13.80;;;3.13;;
48795;SDS011;34607;48.520;-1.330;2023-10-19T07:15:49;12.13;;;3.60;;
48795;SDS011;34607;48.520;-1.330;2023-10-19T07:18:16;15.48;;;2.80;;
48795;SDS011;34607;48.520;-1.330;2023-10-19T07:20:44;16.80;;;2.50;;
48795;SDS011;34607;48.520;-1.330;2023-10-19T07:23:15;13.60;;;2.83;;
48795;SDS011;34607;48.520;-1.330;2023-10-19T07:25:45;13.82;;;2.60;;
48795;SDS011;34607;48.520;-1.330;2023-10-19T07:28:18;13.02;;;2.45;;
48795;SDS011;34607;48.520;-1.330;2023-10-19T07:30:47;16.30;;;2.90;;
48795;SDS011;34607;48.520;-1.330;2023-10-19T07:33:16;11.25;;;2.80;;
48795;SDS011;34607;48.520;-1.330;2023-10-19T07:35:45;15.80;;;2.90;;
48795;SDS011;34607;48.520;-1.330;2023-10-19T07:38:14;21.88;;;3.55;;
48795;SDS011;34607;48.520;-1.330;2023-10-19T07:40:42;19.63;;;3.65;;
48795;SDS011;34607;48.520;-1.330;2023-10-19T07:43:10;14.35;;;3.15;;
48795;SDS011;34607;48.520;-1.330;2023-10-19T07:45:37;18.00;;;5.38;;
48795;SDS011;34607;48.520;-1.330;2023-10-19T07:48:05;15.77;;;3.50;;
48795;SDS011;34607;48.520;-1.330;2023-10-19T07:50:32;13.48;;;3.17;;
48795;SDS011;34607;48.520;-1.330;2023-10-19T07:53:00;17.50;;;3.60;;
48795;SDS011;34607;48.520;-1.330;2023-10-19T07:55:28;17.55;;;3.08;;
48795;SDS011;34607;48.520;-1.330;2023-10-19T07:57:57;18.80;;;3.25;;
48795;SDS011;34607;48.520;-1.330;2023-10-19T08:00:26;15.57;;;3.60;;
48795;SDS011;34607;48.520;-1.330;2023-10-19T08:02:55;16.05;;;3.00;;
48795;SDS011;34607;48.520;-1.330;2023-10-19T08:05:23;15.20;;;3.92;;
48795;SDS011;34607;48.520;-1.330;2023-10-19T08:07:51;20.90;;;3.60;;
48795;SDS011;34607;48.520;-1.330;2023-10-19T08:10:19;15.40;;;3.53;;
48795;SDS011;34607;48.520;-1.330;2023-10-19T08:12:49;24.85;;;4.57;;
48795;SDS011;34607;48.520;-1.330;2023-10-19T08:15:17;11.13;;;3.17;;
48795;SDS011;34607;48.520;-1.330;2023-10-19T08:17:46;15.85;;;3.95;;
48795;SDS011;34607;48.520;-1.330;2023-10-19T08:20:14;18.20;;;3.72;;
48795;SDS011;34607;48.520;-1.330;2023-10-19T08:22:49;20.38;;;3.10;;
48795;SDS011;34607;48.520;-1.330;2023-10-19T08:25:17;21.80;;;3.42;;
48795;SDS011;34607;48.520;-1.330;2023-10-19T08:27:45;18.23;;;4.53;;
48795;SDS011;34607;48.520;-1.330;2023-10-19T08:30:17;15.65;;;3.42;;
48795;SDS011;34607;48.520;-1.330;2023-10-19T08:32:46;17.75;;;3.92;;
48795;SDS011;34607;48.520;-1.330;2023-10-19T08:35:14;20.05;;;3.58;;
48795;SDS011;34607;48.520;-1.330;2023-10-19T08:37:46;19.52;;;4.20;;
48795;SDS011;34607;48.520;-1.330;2023-10-19T08:40:13;16.88;;;4.38;;
48795;SDS011;34607;48.520;-1.330;2023-10-19T08:42:40;20.75;;;4.13;;
48795;SDS011;34607;48.520;-1.330;2023-10-19T08:45:08;17.42;;;3.78;;
48795;SDS011;34607;48.520;-1.330;2023-10-19T08:47:41;19.60;;;4.03;;
48795;SDS011;34607;48.520;-1.330;2023-10-19T08:50:15;18.00;;;3.45;;
48795;SDS011;34607;48.520;-1.330;2023-10-19T08:52:46;15.50;;;4.25;;
48795;SDS011;34607;48.520;-1.330;2023-10-19T08:55:15;23.15;;;4.68;;
48795;SDS011;34607;48.520;-1.330;2023-10-19T08:57:42;16.85;;;4.40;;
48795;SDS011;34607;48.520;-1.330;2023-10-19T09:00:10;14.68;;;3.50;;
48795;SDS011;34607;48.520;-1.330;2023-10-19T09:02:38;19.33;;;3.47;;
48795;SDS011;34607;48.520;-1.330;2023-10-19T09:05:10;19.60;;;4.20;;
48795;SDS011;34607;48.520;-1.330;2023-10-19T09:07:45;24.83;;;5.55;;
48795;SDS011;34607;48.520;-1.330;2023-10-19T09:10:20;17.35;;;4.53;;
48795;SDS011;34607;48.520;-1.330;2023-10-19T09:12:57;16.58;;;3.85;;
48795;SDS011;34607;48.520;-1.330;2023-10-19T09:15:27;19.00;;;3.97;;
48795;SDS011;34607;48.520;-1.330;2023-10-19T09:17:56;29.67;;;5.18;;
48795;SDS011;34607;48.520;-1.330;2023-10-19T09:20:25;20.58;;;5.10;;
48795;SDS011;34607;48.520;-1.330;2023-10-19T09:22:54;22.58;;;4.78;;
48795;SDS011;34607;48.520;-1.330;2023-10-19T09:25:22;21.25;;;4.28;;
48795;SDS011;34607;48.520;-1.330;2023-10-19T09:27:50;23.40;;;4.65;;
48795;SDS011;34607;48.520;-1.330;2023-10-19T09:30:17;17.77;;;3.65;;
48795;SDS011;34607;48.520;-1.330;2023-10-19T09:32:48;18.33;;;4.68;;
48795;SDS011;34607;48.520;-1.330;2023-10-19T09:35:19;19.08;;;4.55;;
48795;SDS011;34607;48.520;-1.330;2023-10-19T09:37:48;22.77;;;4.50;;
48795;SDS011;34607;48.520;-1.330;2023-10-19T09:40:15;16.27;;;3.53;;
48795;SDS011;34607;48.520;-1.330;2023-10-19T09:42:42;16.20;;;3.88;;
48795;SDS011;34607;48.520;-1.330;2023-10-19T09:45:13;20.45;;;4.10;;
48795;SDS011;34607;48.520;-1.330;2023-10-19T09:47:46;20.63;;;3.58;;
48795;SDS011;34607;48.520;-1.330;2023-10-19T09:50:16;15.50;;;3.38;;
48795;SDS011;34607;48.520;-1.330;2023-10-19T09:52:44;21.23;;;3.90;;
48795;SDS011;34607;48.520;-1.330;2023-10-19T09:55:14;16.23;;;4.20;;
48795;SDS011;34607;48.520;-1.330;2023-10-19T09:57:50;17.00;;;3.63;;
48795;SDS011;34607;48.520;-1.330;2023-10-19T10:00:20;25.83;;;5.30;;
48795;SDS011;34607;48.520;-1.330;2023-10-19T10:02:50;11.30;;;3.38;;
48795;SDS011;34607;48.520;-1.330;2023-10-19T10:11:12;16.77;;;4.90;;
48795;SDS011;34607;48.520;-1.330;2023-10-19T10:13:44;16.98;;;3.97;;
48795;SDS011;34607;48.520;-1.330;2023-10-19T10:16:13;14.68;;;4.22;;
48795;SDS011;34607;48.520;-1.330;2023-10-19T10:18:41;14.95;;;4.18;;
48795;SDS011;34607;48.520;-1.330;2023-10-19T10:21:13;12.57;;;3.00;;
48795;SDS011;34607;48.520;-1.330;2023-10-19T10:23:42;17.52;;;3.80;;
48795;SDS011;34607;48.520;-1.330;2023-10-19T10:26:12;14.15;;;3.30;;
48795;SDS011;34607;48.520;-1.330;2023-10-19T10:28:40;15.52;;;3.10;;
48795;SDS011;34607;48.520;-1.330;2023-10-19T10:31:09;13.27;;;3.63;;
48795;SDS011;34607;48.520;-1.330;2023-10-19T10:33:39;15.57;;;3.38;;
48795;SDS011;34607;48.520;-1.330;2023-10-19T10:36:10;10.65;;;2.88;;
48795;SDS011;34607;48.520;-1.330;2023-10-19T10:38:37;21.30;;;4.03;;
48795;SDS011;34607;48.520;-1.330;2023-10-19T10:41:05;14.23;;;3.88;;
48795;SDS011;34607;48.520;-1.330;2023-10-19T10:43:50;18.30;;;4.35;;
48795;SDS011;34607;48.520;-1.330;2023-10-19T10:46:19;19.13;;;4.50;;
48795;SDS011;34607;48.520;-1.330;2023-10-19T10:48:48;18.85;;;4.38;;
48795;SDS011;34607;48.520;-1.330;2023-10-19T10:51:16;16.65;;;4.35;;
48795;SDS011;34607;48.520;-1.330;2023-10-19T10:53:47;15.23;;;3.67;;
48795;SDS011;34607;48.520;-1.330;2023-10-19T10:56:16;15.55;;;3.67;;
48795;SDS011;34607;48.520;-1.330;2023-10-19T10:58:43;15.50;;;4.20;;
48795;SDS011;34607;48.520;-1.330;2023-10-19T11:01:12;12.23;;;3.30;;
48795;SDS011;34607;48.520;-1.330;2023-10-19T11:03:41;22.65;;;4.63;;
48795;SDS011;34607;48.520;-1.330;2023-10-19T11:06:09;20.05;;;4.95;;
48795;SDS011;34607;48.520;-1.330;2023-10-19T11:08:37;26.92;;;5.70;;
48795;SDS011;34607;48.520;-1.330;2023-10-19T11:11:06;18.05;;;4.43;;
48795;SDS011;34607;48.520;-1.330;2023-10-19T11:13:36;23.23;;;5.32;;
48795;SDS011;34607;48.520;-1.330;2023-10-19T11:16:06;16.63;;;4.90;;
48795;SDS011;34607;48.520;-1.330;2023-10-19T11:18:36;21.40;;;5.93;;
48795;SDS011;34607;48.520;-1.330;2023-10-19T11:21:06;21.48;;;5.43;;
48795;SDS011;34607;48.520;-1.330;2023-10-19T11:23:35;24.00;;;5.05;;
48795;SDS011;34607;48.520;-1.330;2023-10-19T11:26:03;24.83;;;6.20;;
48795;SDS011;34607;48.520;-1.330;2023-10-19T11:28:31;23.00;;;5.25;;
48795;SDS011;34607;48.520;-1.330;2023-10-19T11:31:15;25.50;;;4.35;;
48795;SDS011;34607;48.520;-1.330;2023-10-19T11:33:46;27.27;;;5.10;;
48795;SDS011;34607;48.520;-1.330;2023-10-19T11:36:15;17.60;;;4.85;;
48795;SDS011;34607;48.520;-1.330;2023-10-19T11:38:43;21.23;;;4.60;;
48795;SDS011;34607;48.520;-1.330;2023-10-19T11:41:11;21.67;;;4.63;;
48795;SDS011;34607;48.520;-1.330;2023-10-19T11:43:39;19.27;;;4.15;;
48795;SDS011;34607;48.520;-1.330;2023-10-19T11:46:07;15.55;;;4.32;;
48795;SDS011;34607;48.520;-1.330;2023-10-19T11:48:35;21.98;;;4.95;;
48795;SDS011;34607;48.520;-1.330;2023-10-19T11:51:04;20.38;;;4.88;;
48795;SDS011;34607;48.520;-1.330;2023-10-19T11:53:32;14.60;;;4.20;;
48795;SDS011;34607;48.520;-1.330;2023-10-19T11:56:02;13.95;;;3.22;;
48795;SDS011;34607;48.520;-1.330;2023-10-19T11:58:31;12.00;;;3.05;;
48795;SDS011;34607;48.520;-1.330;2023-10-19T12:01:00;17.17;;;3.63;;
48795;SDS011;34607;48.520;-1.330;2023-10-19T12:03:28;12.25;;;3.10;;
48795;SDS011;34607;48.520;-1.330;2023-10-19T12:05:55;12.00;;;3.28;;
48795;SDS011;34607;48.520;-1.330;2023-10-19T12:08:24;15.50;;;4.35;;
48795;SDS011;34607;48.520;-1.330;2023-10-19T12:10:51;15.63;;;3.45;;
48795;SDS011;34607;48.520;-1.330;2023-10-19T12:13:18;12.10;;;3.20;;
48795;SDS011;34607;48.520;-1.330;2023-10-19T12:15:45;15.88;;;3.17;;
48795;SDS011;34607;48.520;-1.330;2023-10-19T12:18:20;15.50;;;3.38;;
48795;SDS011;34607;48.520;-1.330;2023-10-19T12:20:48;12.85;;;3.58;;
48795;SDS011;34607;48.520;-1.330;2023-10-19T12:23:15;13.18;;;2.80;;
48795;SDS011;34607;48.520;-1.330;2023-10-19T12:25:43;10.18;;;3.13;;
48795;SDS011;34607;48.520;-1.330;2023-10-19T12:28:11;11.85;;;3.75;;
48795;SDS011;34607;48.520;-1.330;2023-10-19T12:30:42;13.95;;;2.90;;
48795;SDS011;34607;48.520;-1.330;2023-10-19T12:33:10;10.52;;;2.15;;
48795;SDS011;34607;48.520;-1.330;2023-10-19T12:35:41;13.45;;;2.78;;
48795;SDS011;34607;48.520;-1.330;2023-10-19T12:38:11;11.32;;;2.83;;
48795;SDS011;34607;48.520;-1.330;2023-10-19T12:40:46;11.27;;;2.33;;
48795;SDS011;34607;48.520;-1.330;2023-10-19T12:43:15;11.65;;;2.67;;
48795;SDS011;34607;48.520;-1.330;2023-10-19T12:45:45;9.82;;;2.65;;
48795;SDS011;34607;48.520;-1.330;2023-10-19T12:48:19;9.38;;;3.42;;
48795;SDS011;34607;48.520;-1.330;2023-10-19T12:50:47;10.27;;;2.80;;
48795;SDS011;34607;48.520;-1.330;2023-10-19T12:53:14;15.57;;;3.13;;
48795;SDS011;34607;48.520;-1.330;2023-10-19T12:55:41;11.88;;;3.33;;
48795;SDS011;34607;48.520;-1.330;2023-10-19T12:58:10;9.20;;;3.33;;
48795;SDS011;34607;48.520;-1.330;2023-10-19T13:00:40;12.48;;;3.92;;
48795;SDS011;34607;48.520;-1.330;2023-10-19T13:03:09;22.88;;;7.68;;
48795;SDS011;34607;48.520;-1.330;2023-10-19T13:05:40;11.38;;;3.92;;
48795;SDS011;34607;48.520;-1.330;2023-10-19T13:08:09;15.27;;;5.30;;
48795;SDS011;34607;48.520;-1.330;2023-10-19T13:10:39;10.60;;;3.25;;
48795;SDS011;34607;48.520;-1.330;2023-10-19T13:13:08;9.07;;;2.83;;
48795;SDS011;34607;48.520;-1.330;2023-10-19T13:15:40;14.60;;;3.97;;
48795;SDS011;34607;48.520;-1.330;2023-10-19T13:18:08;15.48;;;4.13;;
48795;SDS011;34607;48.520;-1.330;2023-10-19T13:20:36;13.40;;;3.65;;
48795;SDS011;34607;48.520;-1.330;2023-10-19T13:23:03;18.23;;;7.03;;
48795;SDS011;34607;48.520;-1.330;2023-10-19T13:25:32;13.52;;;3.30;;
48795;SDS011;34607;48.520;-1.330;2023-10-19T13:28:07;12.27;;;2.85;;
48795;SDS011;34607;48.520;-1.330;2023-10-19T13:30:37;10.63;;;3.53;;
48795;SDS011;34607;48.520;-1.330;2023-10-19T13:33:06;10.18;;;3.92;;
48795;SDS011;34607;48.520;-1.330;2023-10-19T13:35:34;11.45;;;5.10;;
48795;SDS011;34607;48.520;-1.330;2023-10-19T13:38:02;8.57;;;3.15;;
48795;SDS011;34607;48.520;-1.330;2023-10-19T13:40:30;14.85;;;3.13;;
48795;SDS011;34607;48.520;-1.330;2023-10-19T13:42:57;16.10;;;4.03;;
48795;SDS011;34607;48.520;-1.330;2023-10-19T13:45:25;15.10;;;3.95;;
48795;SDS011;34607;48.520;-1.330;2023-10-19T13:47:52;13.45;;;5.65;;
48795;SDS011;34607;48.520;-1.330;2023-10-19T13:50:23;10.10;;;2.20;;
48795;SDS011;34607;48.520;-1.330;2023-10-19T13:52:52;8.02;;;2.08;;
48795;SDS011;34607;48.520;-1.330;2023-10-19T13:55:22;12.73;;;2.50;;
48795;SDS011;34607;48.520;-1.330;2023-10-19T13:57:49;10.13;;;2.88;;
48795;SDS011;34607;48.520;-1.330;2023-10-19T14:00:17;8.18;;;2.47;;
48795;SDS011;34607;48.520;-1.330;2023-10-19T14:02:50;11.15;;;2.50;;
48795;SDS011;34607;48.520;-1.330;2023-10-19T14:05:18;12.57;;;5.55;;
48795;SDS011;34607;48.520;-1.330;2023-10-19T14:07:46;9.40;;;2.42;;
48795;SDS011;34607;48.520;-1.330;2023-10-19T14:10:13;7.05;;;1.95;;
48795;SDS011;34607;48.520;-1.330;2023-10-19T14:12:41;8.57;;;3.00;;
48795;SDS011;34607;48.520;-1.330;2023-10-19T14:15:13;9.02;;;2.42;;
48795;SDS011;34607;48.520;-1.330;2023-10-19T14:17:41;6.82;;;2.33;;
48795;SDS011;34607;48.520;-1.330;2023-10-19T14:20:09;8.43;;;2.53;;
48795;SDS011;34607;48.520;-1.330;2023-10-19T14:22:40;6.90;;;2.13;;
48795;SDS011;34607;48.520;-1.330;2023-10-19T14:25:09;8.15;;;2.13;;
48795;SDS011;34607;48.520;-1.330;2023-10-19T14:27:42;5.68;;;2.00;;
48795;SDS011;34607;48.520;-1.330;2023-10-19T14:30:10;8.73;;;2.15;;
48795;SDS011;34607;48.520;-1.330;2023-10-19T14:32:39;7.22;;;2.10;;
48795;SDS011;34607;48.520;-1.330;2023-10-19T14:35:08;7.82;;;2.05;;
48795;SDS011;34607;48.520;-1.330;2023-10-19T14:37:37;8.88;;;2.55;;
48795;SDS011;34607;48.520;-1.330;2023-10-19T14:40:07;7.25;;;1.85;;
48795;SDS011;34607;48.520;-1.330;2023-10-19T14:42:37;12.98;;;2.67;;
48795;SDS011;34607;48.520;-1.330;2023-10-19T14:45:05;9.23;;;2.20;;
48795;SDS011;34607;48.520;-1.330;2023-10-19T14:47:35;6.97;;;2.42;;
48795;SDS011;34607;48.520;-1.330;2023-10-19T14:50:06;10.27;;;2.55;;
48795;SDS011;34607;48.520;-1.330;2023-10-19T14:52:36;7.40;;;2.22;;
48795;SDS011;34607;48.520;-1.330;2023-10-19T14:55:04;6.57;;;1.95;;
48795;SDS011;34607;48.520;-1.330;2023-10-19T14:57:34;6.03;;;1.90;;
48795;SDS011;34607;48.520;-1.330;2023-10-19T15:00:02;7.65;;;1.98;;
48795;SDS011;34607;48.520;-1.330;2023-10-19T15:02:40;5.85;;;2.30;;
48795;SDS011;34607;48.520;-1.330;2023-10-19T15:05:08;7.30;;;2.75;;
48795;SDS011;34607;48.520;-1.330;2023-10-19T15:07:39;10.68;;;2.22;;
48795;SDS011;34607;48.520;-1.330;2023-10-19T15:10:08;6.63;;;2.20;;
48795;SDS011;34607;48.520;-1.330;2023-10-19T15:12:38;6.78;;;1.92;;
48795;SDS011;34607;48.520;-1.330;2023-10-19T15:15:06;12.00;;;2.65;;
48795;SDS011;34607;48.520;-1.330;2023-10-19T15:17:34;9.00;;;2.53;;
48795;SDS011;34607;48.520;-1.330;2023-10-19T15:20:03;7.80;;;1.67;;
48795;SDS011;34607;48.520;-1.330;2023-10-19T15:22:31;6.07;;;1.77;;
48795;SDS011;34607;48.520;-1.330;2023-10-19T15:24:59;7.63;;;2.15;;
48795;SDS011;34607;48.520;-1.330;2023-10-19T15:27:26;6.55;;;1.60;;
48795;SDS011;34607;48.520;-1.330;2023-10-19T15:29:55;8.35;;;1.67;;
48795;SDS011;34607;48.520;-1.330;2023-10-19T15:32:23;6.13;;;1.80;;
48795;SDS011;34607;48.520;-1.330;2023-10-19T15:34:50;7.80;;;2.90;;
48795;SDS011;34607;48.520;-1.330;2023-10-19T15:37:18;5.78;;;2.17;;
48795;SDS011;34607;48.520;-1.330;2023-10-19T15:39:46;4.82;;;1.52;;
48795;SDS011;34607;48.520;-1.330;2023-10-19T15:42:13;11.60;;;2.38;;
48795;SDS011;34607;48.520;-1.330;2023-10-19T15:44:40;6.10;;;1.70;;
48795;SDS011;34607;48.520;-1.330;2023-10-19T15:47:08;7.00;;;1.77;;
48795;SDS011;34607;48.520;-1.330;2023-10-19T15:49:41;6.75;;;2.08;;
48795;SDS011;34607;48.520;-1.330;2023-10-19T15:52:13;6.90;;;1.83;;
48795;SDS011;34607;48.520;-1.330;2023-10-19T15:54:40;6.78;;;1.67;;
48795;SDS011;34607;48.520;-1.330;2023-10-19T15:57:07;8.30;;;2.13;;
48795;SDS011;34607;48.520;-1.330;2023-10-19T15:59:34;7.18;;;2.00;;
48795;SDS011;34607;48.520;-1.330;2023-10-19T16:02:01;8.68;;;2.42;;
48795;SDS011;34607;48.520;-1.330;2023-10-19T16:04:30;7.80;;;2.30;;
48795;SDS011;34607;48.520;-1.330;2023-10-19T16:06:57;8.40;;;2.05;;
48795;SDS011;34607;48.520;-1.330;2023-10-19T16:09:24;13.43;;;3.42;;
48795;SDS011;34607;48.520;-1.330;2023-10-19T16:11:52;8.02;;;2.45;;
48795;SDS011;34607;48.520;-1.330;2023-10-19T16:14:19;8.13;;;1.98;;
48795;SDS011;34607;48.520;-1.330;2023-10-19T16:16:46;8.75;;;2.40;;
48795;SDS011;34607;48.520;-1.330;2023-10-19T16:19:13;6.70;;;2.28;;
48795;SDS011;34607;48.520;-1.330;2023-10-19T16:21:42;10.18;;;2.70;;
48795;SDS011;34607;48.520;-1.330;2023-10-19T16:24:09;7.03;;;2.13;;
48795;SDS011;34607;48.520;-1.330;2023-10-19T16:26:37;7.35;;;2.00;;
48795;SDS011;34607;48.520;-1.330;2023-10-19T16:29:05;5.07;;;1.75;;
48795;SDS011;34607;48.520;-1.330;2023-10-19T16:31:40;12.13;;;2.60;;
48795;SDS011;34607;48.520;-1.330;2023-10-19T16:34:08;7.40;;;2.03;;
48795;SDS011;34607;48.520;-1.330;2023-10-19T16:36:35;7.00;;;1.60;;
48795;SDS011;34607;48.520;-1.330;2023-10-19T16:39:04;7.68;;;2.92;;
48795;SDS011;34607;48.520;-1.330;2023-10-19T16:41:33;9.60;;;2.55;;
48795;SDS011;34607;48.520;-1.330;2023-10-19T16:44:01;5.70;;;2.13;;
48795;SDS011;34607;48.520;-1.330;2023-10-19T16:46:30;8.13;;;2.30;;
48795;SDS011;34607;48.520;-1.330;2023-10-19T16:48:58;9.70;;;1.95;;
48795;SDS011;34607;48.520;-1.330;2023-10-19T16:51:25;6.30;;;2.35;;
48795;SDS011;34607;48.520;-1.330;2023-10-19T16:53:54;5.97;;;2.00;;
48795;SDS011;34607;48.520;-1.330;2023-10-19T16:56:23;7.70;;;2.20;;
48795;SDS011;34607;48.520;-1.330;2023-10-19T16:58:51;8.25;;;1.85;;
48795;SDS011;34607;48.520;-1.330;2023-10-19T17:01:18;10.18;;;3.05;;
48795;SDS011;34607;48.520;-1.330;2023-10-19T17:03:45;7.43;;;1.80;;
48795;SDS011;34607;48.520;-1.330;2023-10-19T17:06:12;8.98;;;2.45;;
48795;SDS011;34607;48.520;-1.330;2023-10-19T17:08:40;6.97;;;1.63;;
48795;SDS011;34607;48.520;-1.330;2023-10-19T17:11:07;6.60;;;1.58;;
48795;SDS011;34607;48.520;-1.330;2023-10-19T17:13:36;8.48;;;2.00;;
48795;SDS011;34607;48.520;-1.330;2023-10-19T17:16:03;6.47;;;1.67;;
48795;SDS011;34607;48.520;-1.330;2023-10-19T17:18:31;6.65;;;1.95;;
48795;SDS011;34607;48.520;-1.330;2023-10-19T17:21:00;6.43;;;1.92;;
48795;SDS011;34607;48.520;-1.330;2023-10-19T17:23:27;10.52;;;2.13;;
48795;SDS011;34607;48.520;-1.330;2023-10-19T17:25:54;7.18;;;2.00;;
48795;SDS011;34607;48.520;-1.330;2023-10-19T17:28:22;6.82;;;1.80;;
48795;SDS011;34607;48.520;-1.330;2023-10-19T17:30:51;5.32;;;2.10;;
48795;SDS011;34607;48.520;-1.330;2023-10-19T17:33:19;5.60;;;2.30;;
48795;SDS011;34607;48.520;-1.330;2023-10-19T17:35:47;5.45;;;2.80;;
48795;SDS011;34607;48.520;-1.330;2023-10-19T17:38:14;7.15;;;3.70;;
48795;SDS011;34607;48.520;-1.330;2023-10-19T17:40:41;9.52;;;3.88;;
48795;SDS011;34607;48.520;-1.330;2023-10-19T17:43:09;7.10;;;2.25;;
48795;SDS011;34607;48.520;-1.330;2023-10-19T17:45:44;8.15;;;3.35;;
48795;SDS011;34607;48.520;-1.330;2023-10-19T17:48:13;6.13;;;3.58;;
48795;SDS011;34607;48.520;-1.330;2023-10-19T17:50:40;12.57;;;3.88;;
48795;SDS011;34607;48.520;-1.330;2023-10-19T17:53:08;8.38;;;2.65;;
48795;SDS011;34607;48.520;-1.330;2023-10-19T17:55:35;9.32;;;2.80;;
48795;SDS011;34607;48.520;-1.330;2023-10-19T17:58:02;8.18;;;2.10;;
48795;SDS011;34607;48.520;-1.330;2023-10-19T18:00:31;6.00;;;2.95;;
48795;SDS011;34607;48.520;-1.330;2023-10-19T18:02:58;12.15;;;3.10;;
48795;SDS011;34607;48.520;-1.330;2023-10-19T18:05:27;10.57;;;3.92;;
48795;SDS011;34607;48.520;-1.330;2023-10-19T18:07:54;7.95;;;2.80;;
48795;SDS011;34607;48.520;-1.330;2023-10-19T18:10:22;6.32;;;2.80;;
48795;SDS011;34607;48.520;-1.330;2023-10-19T18:12:54;8.30;;;3.63;;
48795;SDS011;34607;48.520;-1.330;2023-10-19T18:15:21;11.40;;;3.15;;
48795;SDS011;34607;48.520;-1.330;2023-10-19T18:17:48;12.25;;;3.15;;
48795;SDS011;34607;48.520;-1.330;2023-10-19T18:20:17;9.10;;;3.03;;
48795;SDS011;34607;48.520;-1.330;2023-10-19T18:22:46;8.55;;;2.85;;
48795;SDS011;34607;48.520;-1.330;2023-10-19T18:25:13;8.90;;;2.70;;
48795;SDS011;34607;48.520;-1.330;2023-10-19T18:27:42;9.20;;;3.58;;
48795;SDS011;34607;48.520;-1.330;2023-10-19T18:30:09;10.82;;;3.00;;
48795;SDS011;34607;48.520;-1.330;2023-10-19T18:32:38;11.40;;;4.22;;
48795;SDS011;34607;48.520;-1.330;2023-10-19T18:35:06;9.00;;;3.75;;
48795;SDS011;34607;48.520;-1.330;2023-10-19T18:37:36;9.43;;;3.20;;
48795;SDS011;34607;48.520;-1.330;2023-10-19T18:40:05;8.50;;;3.28;;
48795;SDS011;34607;48.520;-1.330;2023-10-19T18:42:33;11.65;;;4.15;;
48795;SDS011;34607;48.520;-1.330;2023-10-19T18:45:01;5.95;;;2.90;;
48795;SDS011;34607;48.520;-1.330;2023-10-19T18:47:30;9.27;;;3.30;;
48795;SDS011;34607;48.520;-1.330;2023-10-19T18:49:59;8.77;;;2.95;;
48795;SDS011;34607;48.520;-1.330;2023-10-19T18:52:29;10.75;;;3.80;;
48795;SDS011;34607;48.520;-1.330;2023-10-19T18:54:57;13.48;;;3.58;;
48795;SDS011;34607;48.520;-1.330;2023-10-19T18:57:26;8.35;;;2.80;;
48795;SDS011;34607;48.520;-1.330;2023-10-19T18:59:53;6.75;;;2.80;;
48795;SDS011;34607;48.520;-1.330;2023-10-19T19:02:21;5.85;;;2.53;;
48795;SDS011;34607;48.520;-1.330;2023-10-19T19:04:48;5.18;;;2.13;;
48795;SDS011;34607;48.520;-1.330;2023-10-19T19:07:15;7.47;;;2.53;;
48795;SDS011;34607;48.520;-1.330;2023-10-19T19:09:43;6.03;;;2.38;;
48795;SDS011;34607;48.520;-1.330;2023-10-19T19:12:10;9.32;;;2.42;;
48795;SDS011;34607;48.520;-1.330;2023-10-19T19:14:39;3.70;;;1.80;;
48795;SDS011;34607;48.520;-1.330;2023-10-19T19:17:06;5.68;;;2.42;;
48795;SDS011;34607;48.520;-1.330;2023-10-19T19:19:34;6.20;;;1.80;;
48795;SDS011;34607;48.520;-1.330;2023-10-19T19:22:03;12.13;;;2.38;;
48795;SDS011;34607;48.520;-1.330;2023-10-19T19:24:30;5.47;;;2.35;;
48795;SDS011;34607;48.520;-1.330;2023-10-19T19:27:01;4.88;;;1.88;;
48795;SDS011;34607;48.520;-1.330;2023-10-19T19:29:28;6.75;;;2.45;;
48795;SDS011;34607;48.520;-1.330;2023-10-19T19:31:56;4.97;;;1.88;;
48795;SDS011;34607;48.520;-1.330;2023-10-19T19:34:23;7.38;;;2.22;;
48795;SDS011;34607;48.520;-1.330;2023-10-19T19:36:50;6.45;;;1.63;;
48795;SDS011;34607;48.520;-1.330;2023-10-19T19:39:18;7.60;;;1.50;;
48795;SDS011;34607;48.520;-1.330;2023-10-19T19:41:45;6.13;;;1.50;;
48795;SDS011;34607;48.520;-1.330;2023-10-19T19:44:12;8.23;;;1.90;;
48795;SDS011;34607;48.520;-1.330;2023-10-19T19:46:39;7.90;;;1.88;;
48795;SDS011;34607;48.520;-1.330;2023-10-19T19:49:08;6.82;;;1.73;;
48795;SDS011;34607;48.520;-1.330;2023-10-19T19:51:35;8.00;;;2.28;;
48795;SDS011;34607;48.520;-1.330;2023-10-19T19:54:02;6.28;;;2.05;;
48795;SDS011;34607;48.520;-1.330;2023-10-19T19:56:30;7.22;;;2.00;;
48795;SDS011;34607;48.520;-1.330;2023-10-19T19:58:57;8.82;;;2.90;;
48795;SDS011;34607;48.520;-1.330;2023-10-19T20:01:25;7.03;;;2.15;;
48795;SDS011;34607;48.520;-1.330;2023-10-19T20:03:52;3.78;;;1.92;;
48795;SDS011;34607;48.520;-1.330;2023-10-19T20:06:21;8.70;;;2.38;;
48795;SDS011;34607;48.520;-1.330;2023-10-19T20:08:48;4.70;;;2.60;;
48795;SDS011;34607;48.520;-1.330;2023-10-19T20:11:18;9.80;;;2.47;;
48795;SDS011;34607;48.520;-1.330;2023-10-19T20:13:45;8.15;;;2.17;;
48795;SDS011;34607;48.520;-1.330;2023-10-19T20:16:12;5.97;;;2.42;;
48795;SDS011;34607;48.520;-1.330;2023-10-19T20:18:39;7.95;;;2.58;;
48795;SDS011;34607;48.520;-1.330;2023-10-19T20:21:06;7.13;;;2.58;;
48795;SDS011;34607;48.520;-1.330;2023-10-19T20:23:35;4.63;;;2.35;;
48795;SDS011;34607;48.520;-1.330;2023-10-19T20:26:03;8.95;;;2.88;;
48795;SDS011;34607;48.520;-1.330;2023-10-19T20:28:33;9.48;;;3.00;;
48795;SDS011;34607;48.520;-1.330;2023-10-19T20:31:00;5.70;;;2.50;;
48795;SDS011;34607;48.520;-1.330;2023-10-19T20:33:28;4.95;;;2.60;;
48795;SDS011;34607;48.520;-1.330;2023-10-19T20:35:55;6.43;;;3.17;;
48795;SDS011;34607;48.520;-1.330;2023-10-19T20:38:22;7.85;;;3.65;;
48795;SDS011;34607;48.520;-1.330;2023-10-19T20:40:51;4.07;;;3.50;;
48795;SDS011;34607;48.520;-1.330;2023-10-19T20:43:18;7.63;;;3.55;;
48795;SDS011;34607;48.520;-1.330;2023-10-19T20:45:46;6.07;;;3.00;;
48795;SDS011;34607;48.520;-1.330;2023-10-19T20:48:14;8.93;;;3.20;;
48795;SDS011;34607;48.520;-1.330;2023-10-19T20:50:42;4.22;;;3.10;;
48795;SDS011;34607;48.520;-1.330;2023-10-19T20:53:10;3.85;;;2.88;;
48795;SDS011;34607;48.520;-1.330;2023-10-19T20:55:38;5.38;;;3.22;;